createdAt,value
2022-10-18T00:00:31.960Z,97882.50
2022-10-18T00:06:10.943Z,97880.34
2022-10-18T00:11:32.628Z,97879.47
2022-10-18T00:16:53.525Z,97883.81
2022-10-18T00:22:14.198Z,97891.63
2022-10-18T00:27:35.883Z,97901.75
2022-10-18T00:32:56.434Z,97902.00
2022-10-18T00:38:17.078Z,97904.72
2022-10-18T00:44:00.757Z,97898.78
2022-10-18T00:49:34.349Z,97898.34
2022-10-18T00:54:56.756Z,97889.50
2022-10-18T01:00:18.648Z,97887.63
2022-10-18T01:05:45.118Z,97881.00
2022-10-18T01:11:39.103Z,97884.31
2022-10-18T01:17:01.554Z,97877.75
2022-10-18T01:22:36.698Z,97864.25
2022-10-18T01:28:12.479Z,97873.19
2022-10-18T01:33:41.581Z,97870.50
2022-10-18T01:39:07.141Z,97868.91
2022-10-18T01:44:31.977Z,97869.09
2022-10-18T01:49:59.292Z,97866.41
2022-10-18T01:55:25.649Z,97860.41
2022-10-18T02:00:52.242Z,97858.59
2022-10-18T02:06:27.122Z,97859.78
2022-10-18T02:11:53.925Z,97856.31
2022-10-18T02:17:16.452Z,97862.25
2022-10-18T02:22:40.928Z,97861.84
2022-10-18T02:28:05.396Z,97851.38
2022-10-18T02:33:34.616Z,97851.47
2022-10-18T02:39:03.146Z,97862.50
2022-10-18T02:44:24.318Z,97848.25
2022-10-18T02:49:44.842Z,97865.16
2022-10-18T02:55:07.012Z,97855.28
2022-10-18T03:00:27.669Z,97848.63
2022-10-18T03:05:52.404Z,97847.28
2022-10-18T03:11:13.274Z,97844.56
2022-10-18T03:16:34.321Z,97855.13
2022-10-18T03:21:55.139Z,97860.75
2022-10-18T03:27:15.754Z,97850.63
2022-10-18T03:32:36.303Z,97862.28
2022-10-18T03:37:56.829Z,97860.25
2022-10-18T03:43:17.445Z,97855.53
2022-10-18T03:48:38.089Z,97863.25
2022-10-18T03:53:58.565Z,97862.66
2022-10-18T03:59:19.346Z,97863.63
2022-10-18T04:04:39.972Z,97855.06
2022-10-18T04:10:00.881Z,97847.72
2022-10-18T04:15:21.466Z,97858.41
2022-10-18T04:20:42.139Z,97853.41
2022-10-18T04:26:02.776Z,97840.59
2022-10-18T04:31:23.514Z,97837.97
2022-10-18T04:36:43.993Z,97847.38
2022-10-18T04:42:04.755Z,97839.03
2022-10-18T04:47:25.287Z,97842.13
2022-10-18T04:52:45.975Z,97834.41
2022-10-18T04:58:06.575Z,97842.38
2022-10-18T05:03:27.315Z,97833.34
2022-10-18T05:08:47.899Z,97831.31
2022-10-18T05:14:10.269Z,97840.22
2022-10-18T05:19:31.343Z,97837.13
2022-10-18T05:24:51.834Z,97837.13
2022-10-18T05:30:12.613Z,97837.03
2022-10-18T05:35:33.789Z,97833.59
2022-10-18T05:40:54.422Z,97838.91
2022-10-18T05:46:15.819Z,97847.38
2022-10-18T05:51:36.842Z,97830.97
2022-10-18T05:56:57.696Z,97831.69
2022-10-18T06:02:18.397Z,97838.81
2022-10-18T06:07:39.000Z,97852.31
2022-10-18T06:12:59.529Z,97854.00
2022-10-18T06:18:20.094Z,97847.47
2022-10-18T06:23:41.114Z,97854.72
2022-10-18T06:29:02.212Z,97852.31
2022-10-18T06:34:22.944Z,97851.88
2022-10-18T06:39:43.532Z,97856.25
2022-10-18T06:45:05.083Z,97855.78
2022-10-18T06:50:25.833Z,97852.00
2022-10-18T06:55:46.962Z,97847.94
2022-10-18T07:01:10.013Z,97852.41
2022-10-18T07:06:30.453Z,97856.09
2022-10-18T07:11:52.835Z,97857.19
2022-10-18T07:17:14.264Z,97861.09
2022-10-18T07:22:35.049Z,97860.41
2022-10-18T07:27:56.060Z,97862.19
2022-10-18T07:33:16.837Z,97866.22
2022-10-18T07:38:37.658Z,97861.63
2022-10-18T07:43:58.221Z,97865.84
2022-10-18T07:49:18.848Z,97857.41
2022-10-18T07:54:39.447Z,97855.63
2022-10-18T08:00:00.110Z,97847.59
2022-10-18T08:05:20.758Z,97847.44
2022-10-18T08:10:41.537Z,97847.09
2022-10-18T08:16:13.360Z,97848.81
2022-10-18T08:21:34.297Z,97836.31
2022-10-18T08:26:55.066Z,97826.66
2022-10-18T08:32:15.760Z,97822.13
2022-10-18T08:37:36.371Z,97822.19
2022-10-18T08:43:04.839Z,97826.31
2022-10-18T08:48:35.676Z,97820.31
2022-10-18T08:54:26.061Z,97813.25
2022-10-18T08:59:46.661Z,97815.50
2022-10-18T09:05:29.544Z,97806.28
2022-10-18T09:11:09.103Z,97812.28
2022-10-18T09:16:32.983Z,97818.91
2022-10-18T09:21:57.638Z,97815.88
2022-10-18T09:27:20.834Z,97810.78
2022-10-18T09:32:51.740Z,97800.00
2022-10-18T09:38:16.757Z,97801.38
2022-10-18T09:43:48.379Z,97787.81
2022-10-18T09:49:32.763Z,97784.34
2022-10-18T09:55:01.493Z,97785.13
2022-10-18T10:00:31.383Z,97787.53
2022-10-18T10:06:02.750Z,97779.63
2022-10-18T10:11:31.505Z,97777.59
2022-10-18T10:16:57.653Z,97767.88
2022-10-18T10:22:41.583Z,97765.25
2022-10-18T10:28:06.389Z,97757.41
2022-10-18T10:33:37.556Z,97758.50
2022-10-18T10:39:11.793Z,97756.84
2022-10-18T10:44:36.752Z,97747.19
2022-10-18T10:49:57.685Z,97750.94
2022-10-18T10:55:34.537Z,97739.59
2022-10-18T11:00:58.011Z,97748.69
2022-10-18T11:06:57.666Z,97751.44
2022-10-18T11:12:27.928Z,97742.47
2022-10-18T11:18:11.690Z,97745.78
2022-10-18T11:23:34.104Z,97738.88
2022-10-18T11:29:23.918Z,97740.28
2022-10-18T11:35:03.055Z,97736.47
2022-10-18T11:40:26.984Z,97719.81
2022-10-18T11:45:59.938Z,97711.94
2022-10-18T11:51:50.251Z,97711.03
2022-10-18T11:57:41.601Z,97712.41
2022-10-18T12:03:02.121Z,97706.09
2022-10-18T12:08:31.708Z,97702.81
2022-10-18T12:13:57.844Z,97689.00
2022-10-18T12:19:26.430Z,97674.09
2022-10-18T12:24:48.298Z,97669.00
2022-10-18T12:30:29.082Z,97649.53
2022-10-18T12:35:59.172Z,97641.44
2022-10-18T12:41:26.797Z,97635.13
2022-10-18T12:46:52.266Z,97623.63
2022-10-18T12:52:23.579Z,97620.50
2022-10-18T12:57:53.629Z,97622.16
2022-10-18T13:03:17.857Z,97612.94
2022-10-18T13:08:42.172Z,97619.25
2022-10-18T13:14:11.957Z,97611.03
2022-10-18T13:19:32.364Z,97608.94
2022-10-18T13:25:17.911Z,97609.94
2022-10-18T13:30:55.565Z,97603.19
2022-10-18T13:36:25.339Z,97610.44
2022-10-18T13:41:45.963Z,97607.81
2022-10-18T13:47:13.848Z,97607.16
2022-10-18T13:53:03.410Z,97607.31
2022-10-18T13:58:53.826Z,97617.53
2022-10-18T14:04:39.237Z,97621.50
2022-10-18T14:10:04.105Z,97612.91
2022-10-18T14:15:39.543Z,97600.06
2022-10-18T14:21:13.659Z,97591.47
2022-10-18T14:26:35.997Z,97594.78
2022-10-18T14:31:58.059Z,97594.13
2022-10-18T14:37:36.533Z,97599.88
2022-10-18T14:42:57.031Z,97598.06
2022-10-18T14:48:22.373Z,97604.50
2022-10-18T14:53:43.170Z,97621.66
2022-10-18T14:59:11.636Z,97658.88
2022-10-18T15:04:35.175Z,97690.81
2022-10-18T15:09:59.001Z,97668.72
2022-10-18T15:15:22.238Z,97690.56
2022-10-18T15:20:43.474Z,97682.09
2022-10-18T15:26:11.570Z,97704.56
2022-10-18T15:31:35.985Z,97672.25
2022-10-18T15:36:56.918Z,97651.72
2022-10-18T15:42:37.339Z,97662.84
2022-10-18T15:48:02.263Z,97661.03
2022-10-18T15:53:23.708Z,97662.50
2022-10-18T15:58:46.451Z,97680.34
2022-10-18T16:04:32.990Z,97686.59
2022-10-18T16:09:53.951Z,97682.06
2022-10-18T16:15:14.975Z,97698.22
2022-10-18T16:20:35.669Z,97705.94
2022-10-18T16:25:57.024Z,97693.13
2022-10-18T16:31:21.054Z,97703.47
2022-10-18T16:36:41.984Z,97712.72
2022-10-18T16:42:03.205Z,97718.25
2022-10-18T16:47:24.259Z,97729.09
2022-10-18T16:52:45.344Z,97737.25
2022-10-18T16:58:06.909Z,97747.22
2022-10-18T17:03:28.155Z,97759.63
2022-10-18T17:08:49.855Z,97761.28
2022-10-18T17:14:10.785Z,97777.31
2022-10-18T17:19:31.706Z,97776.06
2022-10-18T17:24:52.754Z,97795.44
2022-10-18T17:30:14.926Z,97802.91
2022-10-18T17:35:35.737Z,97816.16
2022-10-18T17:40:57.196Z,97819.03
2022-10-18T17:46:19.695Z,97827.50
2022-10-18T17:51:41.668Z,97823.63
2022-10-18T17:57:02.529Z,97824.59
2022-10-18T18:02:23.320Z,97822.66
2022-10-18T18:07:44.349Z,97843.06
2022-10-18T18:13:05.408Z,97839.19
2022-10-18T18:18:26.340Z,97833.84
2022-10-18T18:23:47.713Z,97844.03
2022-10-18T18:29:13.109Z,97834.22
2022-10-18T18:34:36.675Z,97826.94
2022-10-18T18:39:57.286Z,97834.13
2022-10-18T18:45:18.077Z,97836.88
2022-10-18T18:50:38.909Z,97825.56
2022-10-18T18:56:06.086Z,97818.06
2022-10-18T19:01:32.100Z,97833.00
2022-10-18T19:06:52.727Z,97835.47
2022-10-18T19:12:16.297Z,97846.28
2022-10-18T19:17:38.859Z,97843.22
2022-10-18T19:22:59.618Z,97847.94
2022-10-18T19:28:20.336Z,97845.69
2022-10-18T19:33:48.156Z,97837.69
2022-10-18T19:39:18.476Z,97844.06
2022-10-18T19:44:40.975Z,97843.50
2022-10-18T19:50:01.862Z,97851.22
2022-10-18T19:55:22.571Z,97853.16
2022-10-18T20:00:43.154Z,97852.06
2022-10-18T20:06:04.227Z,97846.00
2022-10-18T20:11:27.206Z,97854.28
2022-10-18T20:16:48.205Z,97862.16
2022-10-18T20:22:08.793Z,97859.25
2022-10-18T20:27:30.807Z,97866.03
2022-10-18T20:32:53.170Z,97871.56
2022-10-18T20:38:13.777Z,97869.19
2022-10-18T20:43:35.383Z,97885.91
2022-10-18T20:48:56.332Z,97875.41
2022-10-18T20:54:17.228Z,97878.69
2022-10-18T20:59:38.025Z,97878.25
2022-10-18T21:04:58.854Z,97882.53
2022-10-18T21:10:19.587Z,97880.75
2022-10-18T21:15:40.219Z,97864.16
2022-10-18T21:21:09.355Z,97870.66
2022-10-18T21:26:30.429Z,97856.88
2022-10-18T21:31:55.271Z,97852.31
2022-10-18T21:37:16.257Z,97851.06
2022-10-18T21:42:37.373Z,97843.75
2022-10-18T21:48:00.114Z,97847.06
2022-10-18T21:53:22.364Z,97846.06
2022-10-18T21:58:44.131Z,97840.28
2022-10-18T22:04:07.296Z,97846.19
2022-10-18T22:09:28.422Z,97855.69
2022-10-18T22:14:49.162Z,97859.66
2022-10-18T22:20:12.252Z,97861.25
2022-10-18T22:25:36.233Z,97856.31
2022-10-18T22:30:57.143Z,97859.03
2022-10-18T22:36:17.814Z,97847.19
2022-10-18T22:41:38.764Z,97841.59
2022-10-18T22:47:00.463Z,97838.81
2022-10-18T22:52:21.575Z,97850.81
2022-10-18T22:57:42.012Z,97822.91
2022-10-18T23:03:02.711Z,97821.00
2022-10-18T23:08:23.601Z,97823.63
2022-10-18T23:13:44.794Z,97824.19
2022-10-18T23:19:05.574Z,97824.91
2022-10-18T23:24:26.154Z,97832.28
2022-10-18T23:29:46.876Z,97835.00
2022-10-18T23:35:07.821Z,97833.72
2022-10-18T23:40:28.883Z,97830.81
2022-10-18T23:45:49.483Z,97831.50
2022-10-18T23:51:10.249Z,97833.28
2022-10-18T23:56:31.119Z,97836.31
